sensor_id;sensor_type;location;lat;lon;timestamp;P1;durP1;ratioP1;P2;durP2;ratioP2
72095;SDS011;59968;51.084;16.748;2023-04-23T00:01:12;22.10;;;11.80;;
72095;SDS011;59968;51.084;16.748;2023-04-23T00:03:45;22.50;;;11.80;;
72095;SDS011;59968;51.084;16.748;2023-04-23T00:06:17;22.10;;;11.80;;
72095;SDS011;59968;51.084;16.748;2023-04-23T00:08:49;22.40;;;12.60;;
72095;SDS011;59968;51.084;16.748;2023-04-23T00:11:26;19.70;;;11.10;;
72095;SDS011;59968;51.084;16.748;2023-04-23T00:14:01;19.80;;;10.50;;
72095;SDS011;59968;51.084;16.748;2023-04-23T00:16:33;19.40;;;11.40;;
72095;SDS011;59968;51.084;16.748;2023-04-23T00:19:06;21.00;;;11.30;;
72095;SDS011;59968;51.084;16.748;2023-04-23T00:21:34;21.30;;;11.30;;
72095;SDS011;59968;51.084;16.748;2023-04-23T00:24:27;20.10;;;11.00;;
72095;SDS011;59968;51.084;16.748;2023-04-23T00:27:00;19.30;;;11.30;;
72095;SDS011;59968;51.084;16.748;2023-04-23T00:29:32;20.90;;;11.00;;
72095;SDS011;59968;51.084;16.748;2023-04-23T00:32:15;19.80;;;11.20;;
72095;SDS011;59968;51.084;16.748;2023-04-23T00:34:46;21.80;;;11.60;;
72095;SDS011;59968;51.084;16.748;2023-04-23T00:37:23;19.80;;;11.50;;
72095;SDS011;59968;51.084;16.748;2023-04-23T00:39:55;20.70;;;11.90;;
72095;SDS011;59968;51.084;16.748;2023-04-23T00:42:40;20.00;;;11.60;;
72095;SDS011;59968;51.084;16.748;2023-04-23T00:45:12;22.10;;;11.50;;
72095;SDS011;59968;51.084;16.748;2023-04-23T00:47:47;20.50;;;11.10;;
72095;SDS011;59968;51.084;16.748;2023-04-23T00:50:16;19.20;;;11.40;;
72095;SDS011;59968;51.084;16.748;2023-04-23T00:52:47;22.80;;;11.90;;
72095;SDS011;59968;51.084;16.748;2023-04-23T00:55:19;20.40;;;11.40;;
72095;SDS011;59968;51.084;16.748;2023-04-23T00:57:57;21.30;;;12.60;;
72095;SDS011;59968;51.084;16.748;2023-04-23T01:00:34;22.10;;;12.10;;
72095;SDS011;59968;51.084;16.748;2023-04-23T01:03:16;21.10;;;12.00;;
72095;SDS011;59968;51.084;16.748;2023-04-23T01:05:54;20.30;;;11.00;;
72095;SDS011;59968;51.084;16.748;2023-04-23T01:08:30;23.90;;;12.30;;
72095;SDS011;59968;51.084;16.748;2023-04-23T01:11:04;21.60;;;11.80;;
72095;SDS011;59968;51.084;16.748;2023-04-23T01:13:37;22.70;;;13.20;;
72095;SDS011;59968;51.084;16.748;2023-04-23T01:16:10;24.50;;;13.30;;
72095;SDS011;59968;51.084;16.748;2023-04-23T01:18:42;19.50;;;11.10;;
72095;SDS011;59968;51.084;16.748;2023-04-23T01:21:19;23.70;;;11.70;;
72095;SDS011;59968;51.084;16.748;2023-04-23T01:23:48;20.40;;;11.80;;
72095;SDS011;59968;51.084;16.748;2023-04-23T01:26:20;25.10;;;13.40;;
72095;SDS011;59968;51.084;16.748;2023-04-23T01:28:55;23.60;;;12.60;;
72095;SDS011;59968;51.084;16.748;2023-04-23T01:31:28;22.10;;;11.70;;
72095;SDS011;59968;51.084;16.748;2023-04-23T01:34:01;22.90;;;11.90;;
72095;SDS011;59968;51.084;16.748;2023-04-23T01:36:30;22.40;;;12.30;;
72095;SDS011;59968;51.084;16.748;2023-04-23T01:39:02;21.70;;;12.20;;
72095;SDS011;59968;51.084;16.748;2023-04-23T01:41:40;20.40;;;11.70;;
72095;SDS011;59968;51.084;16.748;2023-04-23T01:44:12;24.20;;;11.80;;
72095;SDS011;59968;51.084;16.748;2023-04-23T01:46:44;20.80;;;12.40;;
72095;SDS011;59968;51.084;16.748;2023-04-23T01:49:18;22.20;;;12.50;;
72095;SDS011;59968;51.084;16.748;2023-04-23T01:51:47;21.80;;;12.50;;
72095;SDS011;59968;51.084;16.748;2023-04-23T01:54:19;19.90;;;11.60;;
72095;SDS011;59968;51.084;16.748;2023-04-23T01:56:50;21.00;;;12.20;;
72095;SDS011;59968;51.084;16.748;2023-04-23T01:59:27;20.30;;;11.80;;
72095;SDS011;59968;51.084;16.748;2023-04-23T02:02:03;19.00;;;11.90;;
72095;SDS011;59968;51.084;16.748;2023-04-23T02:04:36;19.20;;;11.50;;
72095;SDS011;59968;51.084;16.748;2023-04-23T02:07:06;19.20;;;11.50;;
72095;SDS011;59968;51.084;16.748;2023-04-23T02:09:36;21.50;;;12.10;;
72095;SDS011;59968;51.084;16.748;2023-04-23T02:12:10;21.00;;;12.00;;
72095;SDS011;59968;51.084;16.748;2023-04-23T02:14:43;22.00;;;12.40;;
72095;SDS011;59968;51.084;16.748;2023-04-23T02:17:20;20.60;;;12.20;;
72095;SDS011;59968;51.084;16.748;2023-04-23T02:19:54;21.10;;;11.80;;
72095;SDS011;59968;51.084;16.748;2023-04-23T02:22:29;21.00;;;11.40;;
72095;SDS011;59968;51.084;16.748;2023-04-23T02:25:04;20.50;;;12.10;;
72095;SDS011;59968;51.084;16.748;2023-04-23T02:27:35;20.60;;;11.10;;
72095;SDS011;59968;51.084;16.748;2023-04-23T02:30:17;21.10;;;12.30;;
72095;SDS011;59968;51.084;16.748;2023-04-23T02:32:52;19.10;;;11.50;;
72095;SDS011;59968;51.084;16.748;2023-04-23T02:35:29;20.10;;;11.60;;
72095;SDS011;59968;51.084;16.748;2023-04-23T02:38:06;20.70;;;11.10;;
72095;SDS011;59968;51.084;16.748;2023-04-23T02:40:37;20.10;;;11.20;;
72095;SDS011;59968;51.084;16.748;2023-04-23T02:43:11;23.00;;;11.70;;
72095;SDS011;59968;51.084;16.748;2023-04-23T02:45:49;18.90;;;10.80;;
72095;SDS011;59968;51.084;16.748;2023-04-23T02:48:25;19.10;;;11.30;;
72095;SDS011;59968;51.084;16.748;2023-04-23T02:51:01;19.10;;;11.20;;
72095;SDS011;59968;51.084;16.748;2023-04-23T02:53:33;19.20;;;11.10;;
72095;SDS011;59968;51.084;16.748;2023-04-23T02:56:08;18.30;;;10.80;;
72095;SDS011;59968;51.084;16.748;2023-04-23T02:58:51;19.60;;;10.80;;
72095;SDS011;59968;51.084;16.748;2023-04-23T03:01:46;22.50;;;11.50;;
72095;SDS011;59968;51.084;16.748;2023-04-23T03:04:21;21.60;;;11.10;;
72095;SDS011;59968;51.084;16.748;2023-04-23T03:06:56;21.00;;;11.10;;
72095;SDS011;59968;51.084;16.748;2023-04-23T03:09:27;21.70;;;11.30;;
72095;SDS011;59968;51.084;16.748;2023-04-23T03:12:01;18.50;;;11.00;;
72095;SDS011;59968;51.084;16.748;2023-04-23T03:14:37;17.80;;;10.40;;
72095;SDS011;59968;51.084;16.748;2023-04-23T03:17:12;21.20;;;12.20;;
72095;SDS011;59968;51.084;16.748;2023-04-23T03:19:41;18.90;;;11.10;;
72095;SDS011;59968;51.084;16.748;2023-04-23T03:22:13;18.30;;;10.80;;
72095;SDS011;59968;51.084;16.748;2023-04-23T03:24:56;21.40;;;11.90;;
72095;SDS011;59968;51.084;16.748;2023-04-23T03:27:31;19.90;;;11.30;;
72095;SDS011;59968;51.084;16.748;2023-04-23T03:30:02;19.60;;;10.60;;
72095;SDS011;59968;51.084;16.748;2023-04-23T03:32:31;23.60;;;11.90;;
72095;SDS011;59968;51.084;16.748;2023-04-23T03:35:06;22.00;;;12.40;;
72095;SDS011;59968;51.084;16.748;2023-04-23T03:37:51;20.40;;;11.20;;
72095;SDS011;59968;51.084;16.748;2023-04-23T03:40:20;19.40;;;10.90;;
72095;SDS011;59968;51.084;16.748;2023-04-23T03:42:55;18.50;;;11.40;;
72095;SDS011;59968;51.084;16.748;2023-04-23T03:45:56;24.90;;;15.00;;
72095;SDS011;59968;51.084;16.748;2023-04-23T03:48:25;24.00;;;13.60;;
72095;SDS011;59968;51.084;16.748;2023-04-23T03:51:00;20.80;;;12.70;;
72095;SDS011;59968;51.084;16.748;2023-04-23T03:53:45;23.00;;;12.30;;
72095;SDS011;59968;51.084;16.748;2023-04-23T03:56:35;23.60;;;11.80;;
72095;SDS011;59968;51.084;16.748;2023-04-23T03:59:34;21.90;;;12.30;;
72095;SDS011;59968;51.084;16.748;2023-04-23T04:02:09;24.30;;;12.30;;
72095;SDS011;59968;51.084;16.748;2023-04-23T04:04:41;24.10;;;12.90;;
72095;SDS011;59968;51.084;16.748;2023-04-23T04:07:27;21.90;;;12.00;;
72095;SDS011;59968;51.084;16.748;2023-04-23T04:10:02;18.40;;;10.80;;
72095;SDS011;59968;51.084;16.748;2023-04-23T04:12:34;17.40;;;11.00;;
72095;SDS011;59968;51.084;16.748;2023-04-23T04:15:09;19.00;;;11.20;;
72095;SDS011;59968;51.084;16.748;2023-04-23T04:17:39;20.10;;;10.60;;
72095;SDS011;59968;51.084;16.748;2023-04-23T04:20:13;20.60;;;11.70;;
72095;SDS011;59968;51.084;16.748;2023-04-23T04:22:44;16.40;;;9.80;;
72095;SDS011;59968;51.084;16.748;2023-04-23T04:25:14;20.80;;;11.90;;
72095;SDS011;59968;51.084;16.748;2023-04-23T04:27:47;20.40;;;11.50;;
72095;SDS011;59968;51.084;16.748;2023-04-23T04:30:16;18.30;;;10.80;;
72095;SDS011;59968;51.084;16.748;2023-04-23T04:32:44;20.00;;;11.40;;
72095;SDS011;59968;51.084;16.748;2023-04-23T04:35:20;18.00;;;10.50;;
72095;SDS011;59968;51.084;16.748;2023-04-23T04:37:49;18.20;;;11.60;;
72095;SDS011;59968;51.084;16.748;2023-04-23T04:40:21;18.90;;;10.30;;
72095;SDS011;59968;51.084;16.748;2023-04-23T04:42:50;15.90;;;9.90;;
72095;SDS011;59968;51.084;16.748;2023-04-23T04:45:23;19.70;;;10.40;;
72095;SDS011;59968;51.084;16.748;2023-04-23T04:47:55;16.30;;;10.10;;
72095;SDS011;59968;51.084;16.748;2023-04-23T04:50:37;15.20;;;9.50;;
72095;SDS011;59968;51.084;16.748;2023-04-23T04:53:27;15.00;;;9.00;;
72095;SDS011;59968;51.084;16.748;2023-04-23T04:55:58;13.80;;;8.70;;
72095;SDS011;59968;51.084;16.748;2023-04-23T04:58:49;13.00;;;7.70;;
72095;SDS011;59968;51.084;16.748;2023-04-23T05:01:25;14.60;;;8.30;;
72095;SDS011;59968;51.084;16.748;2023-04-23T05:04:00;12.60;;;7.10;;
72095;SDS011;59968;51.084;16.748;2023-04-23T05:06:35;11.00;;;6.30;;
72095;SDS011;59968;51.084;16.748;2023-04-23T05:09:06;9.20;;;5.80;;
72095;SDS011;59968;51.084;16.748;2023-04-23T05:11:47;11.70;;;6.90;;
72095;SDS011;59968;51.084;16.748;2023-04-23T05:14:16;9.70;;;6.10;;
72095;SDS011;59968;51.084;16.748;2023-04-23T05:16:48;10.40;;;6.70;;
72095;SDS011;59968;51.084;16.748;2023-04-23T05:19:28;12.20;;;6.50;;
72095;SDS011;59968;51.084;16.748;2023-04-23T05:21:57;12.30;;;6.70;;
72095;SDS011;59968;51.084;16.748;2023-04-23T05:24:29;9.80;;;6.40;;
72095;SDS011;59968;51.084;16.748;2023-04-23T05:26:58;10.60;;;6.10;;
72095;SDS011;59968;51.084;16.748;2023-04-23T05:29:29;12.20;;;6.00;;
72095;SDS011;59968;51.084;16.748;2023-04-23T05:31:57;11.10;;;6.50;;
72095;SDS011;59968;51.084;16.748;2023-04-23T05:34:26;10.40;;;6.10;;
72095;SDS011;59968;51.084;16.748;2023-04-23T05:36:58;7.60;;;5.10;;
72095;SDS011;59968;51.084;16.748;2023-04-23T05:39:26;12.20;;;6.50;;
72095;SDS011;59968;51.084;16.748;2023-04-23T05:41:58;9.20;;;6.10;;
72095;SDS011;59968;51.084;16.748;2023-04-23T05:44:29;10.20;;;6.60;;
72095;SDS011;59968;51.084;16.748;2023-04-23T05:46:57;10.80;;;6.50;;
72095;SDS011;59968;51.084;16.748;2023-04-23T05:49:26;10.70;;;6.20;;
72095;SDS011;59968;51.084;16.748;2023-04-23T05:51:55;8.80;;;5.90;;
72095;SDS011;59968;51.084;16.748;2023-04-23T05:54:25;10.00;;;6.10;;
72095;SDS011;59968;51.084;16.748;2023-04-23T05:56:53;11.80;;;6.40;;
72095;SDS011;59968;51.084;16.748;2023-04-23T05:59:22;11.40;;;6.00;;
72095;SDS011;59968;51.084;16.748;2023-04-23T06:01:51;11.50;;;6.50;;
72095;SDS011;59968;51.084;16.748;2023-04-23T06:04:23;12.10;;;6.30;;
72095;SDS011;59968;51.084;16.748;2023-04-23T06:06:52;10.40;;;6.50;;
72095;SDS011;59968;51.084;16.748;2023-04-23T06:09:20;9.40;;;6.60;;
72095;SDS011;59968;51.084;16.748;2023-04-23T06:11:50;11.50;;;6.70;;
72095;SDS011;59968;51.084;16.748;2023-04-23T06:14:21;10.50;;;6.30;;
72095;SDS011;59968;51.084;16.748;2023-04-23T06:16:50;11.80;;;6.40;;
72095;SDS011;59968;51.084;16.748;2023-04-23T06:19:24;10.20;;;6.00;;
72095;SDS011;59968;51.084;16.748;2023-04-23T06:21:54;9.70;;;5.80;;
72095;SDS011;59968;51.084;16.748;2023-04-23T06:24:23;10.80;;;5.80;;
72095;SDS011;59968;51.084;16.748;2023-04-23T06:26:51;9.50;;;5.60;;
72095;SDS011;59968;51.084;16.748;2023-04-23T06:29:20;9.30;;;5.40;;
72095;SDS011;59968;51.084;16.748;2023-04-23T06:31:55;8.10;;;5.50;;
72095;SDS011;59968;51.084;16.748;2023-04-23T06:34:24;8.70;;;5.20;;
72095;SDS011;59968;51.084;16.748;2023-04-23T06:36:53;8.70;;;4.70;;
72095;SDS011;59968;51.084;16.748;2023-04-23T06:39:21;8.80;;;4.60;;
72095;SDS011;59968;51.084;16.748;2023-04-23T06:41:50;7.20;;;4.90;;
72095;SDS011;59968;51.084;16.748;2023-04-23T06:44:23;7.40;;;5.00;;
72095;SDS011;59968;51.084;16.748;2023-04-23T06:46:51;9.30;;;5.60;;
72095;SDS011;59968;51.084;16.748;2023-04-23T06:49:20;6.70;;;4.40;;
72095;SDS011;59968;51.084;16.748;2023-04-23T06:51:48;8.40;;;4.60;;
72095;SDS011;59968;51.084;16.748;2023-04-23T06:54:16;6.90;;;4.90;;
72095;SDS011;59968;51.084;16.748;2023-04-23T06:56:45;10.60;;;5.20;;
72095;SDS011;59968;51.084;16.748;2023-04-23T06:59:13;8.20;;;5.20;;
72095;SDS011;59968;51.084;16.748;2023-04-23T07:01:45;6.30;;;3.90;;
72095;SDS011;59968;51.084;16.748;2023-04-23T07:04:14;8.20;;;5.00;;
72095;SDS011;59968;51.084;16.748;2023-04-23T07:06:42;11.20;;;5.00;;
72095;SDS011;59968;51.084;16.748;2023-04-23T07:09:11;8.80;;;4.90;;
72095;SDS011;59968;51.084;16.748;2023-04-23T07:11:39;7.10;;;4.30;;
72095;SDS011;59968;51.084;16.748;2023-04-23T07:14:08;7.20;;;4.60;;
72095;SDS011;59968;51.084;16.748;2023-04-23T07:16:37;8.90;;;4.60;;
72095;SDS011;59968;51.084;16.748;2023-04-23T07:19:05;6.90;;;4.60;;
72095;SDS011;59968;51.084;16.748;2023-04-23T07:21:33;9.20;;;5.00;;
72095;SDS011;59968;51.084;16.748;2023-04-23T07:24:02;7.20;;;5.60;;
72095;SDS011;59968;51.084;16.748;2023-04-23T07:26:34;8.60;;;5.30;;
72095;SDS011;59968;51.084;16.748;2023-04-23T07:29:04;11.60;;;5.00;;
72095;SDS011;59968;51.084;16.748;2023-04-23T07:31:38;8.90;;;5.30;;
72095;SDS011;59968;51.084;16.748;2023-04-23T07:34:08;9.10;;;4.80;;
72095;SDS011;59968;51.084;16.748;2023-04-23T07:36:37;7.80;;;4.20;;
72095;SDS011;59968;51.084;16.748;2023-04-23T07:39:05;6.10;;;4.50;;
72095;SDS011;59968;51.084;16.748;2023-04-23T07:41:33;9.30;;;5.50;;
72095;SDS011;59968;51.084;16.748;2023-04-23T07:44:03;7.30;;;5.10;;
72095;SDS011;59968;51.084;16.748;2023-04-23T07:46:32;8.70;;;4.50;;
72095;SDS011;59968;51.084;16.748;2023-04-23T07:49:01;9.50;;;4.90;;
72095;SDS011;59968;51.084;16.748;2023-04-23T07:51:29;7.90;;;5.20;;
72095;SDS011;59968;51.084;16.748;2023-04-23T07:53:58;8.70;;;5.20;;
72095;SDS011;59968;51.084;16.748;2023-04-23T07:56:27;7.30;;;4.90;;
72095;SDS011;59968;51.084;16.748;2023-04-23T07:58:59;8.00;;;4.60;;
72095;SDS011;59968;51.084;16.748;2023-04-23T08:01:28;6.30;;;4.50;;
72095;SDS011;59968;51.084;16.748;2023-04-23T08:03:56;10.40;;;5.10;;
72095;SDS011;59968;51.084;16.748;2023-04-23T08:06:27;6.20;;;4.50;;
72095;SDS011;59968;51.084;16.748;2023-04-23T08:09:02;6.00;;;3.70;;
72095;SDS011;59968;51.084;16.748;2023-04-23T08:11:33;8.30;;;4.90;;
72095;SDS011;59968;51.084;16.748;2023-04-23T08:14:02;8.90;;;5.20;;
72095;SDS011;59968;51.084;16.748;2023-04-23T08:16:30;7.60;;;4.90;;
72095;SDS011;59968;51.084;16.748;2023-04-23T08:18:59;9.30;;;4.50;;
72095;SDS011;59968;51.084;16.748;2023-04-23T08:21:33;7.30;;;5.10;;
72095;SDS011;59968;51.084;16.748;2023-04-23T08:24:02;9.00;;;4.80;;
72095;SDS011;59968;51.084;16.748;2023-04-23T08:26:33;10.10;;;4.80;;
72095;SDS011;59968;51.084;16.748;2023-04-23T08:29:02;8.50;;;4.90;;
72095;SDS011;59968;51.084;16.748;2023-04-23T08:31:32;8.70;;;5.60;;
72095;SDS011;59968;51.084;16.748;2023-04-23T08:34:00;7.70;;;4.30;;
72095;SDS011;59968;51.084;16.748;2023-04-23T08:36:30;9.30;;;4.60;;
72095;SDS011;59968;51.084;16.748;2023-04-23T08:38:59;14.80;;;5.20;;
72095;SDS011;59968;51.084;16.748;2023-04-23T08:41:37;8.60;;;5.40;;
72095;SDS011;59968;51.084;16.748;2023-04-23T08:44:17;7.80;;;4.70;;
72095;SDS011;59968;51.084;16.748;2023-04-23T08:46:49;7.00;;;4.40;;
72095;SDS011;59968;51.084;16.748;2023-04-23T08:49:20;7.20;;;4.70;;
72095;SDS011;59968;51.084;16.748;2023-04-23T08:51:52;6.60;;;4.50;;
72095;SDS011;59968;51.084;16.748;2023-04-23T08:54:24;8.10;;;4.60;;
72095;SDS011;59968;51.084;16.748;2023-04-23T08:56:55;6.90;;;4.40;;
72095;SDS011;59968;51.084;16.748;2023-04-23T08:59:25;7.20;;;4.90;;
72095;SDS011;59968;51.084;16.748;2023-04-23T09:01:57;7.40;;;4.50;;
72095;SDS011;59968;51.084;16.748;2023-04-23T09:04:28;6.90;;;4.30;;
72095;SDS011;59968;51.084;16.748;2023-04-23T09:06:58;6.80;;;4.50;;
72095;SDS011;59968;51.084;16.748;2023-04-23T09:09:28;7.20;;;4.30;;
72095;SDS011;59968;51.084;16.748;2023-04-23T09:11:58;7.10;;;4.50;;
72095;SDS011;59968;51.084;16.748;2023-04-23T09:14:27;6.40;;;4.70;;
72095;SDS011;59968;51.084;16.748;2023-04-23T09:16:56;7.20;;;4.70;;
72095;SDS011;59968;51.084;16.748;2023-04-23T09:19:25;6.40;;;4.40;;
72095;SDS011;59968;51.084;16.748;2023-04-23T09:21:56;7.40;;;4.20;;
72095;SDS011;59968;51.084;16.748;2023-04-23T09:24:25;8.00;;;4.40;;
72095;SDS011;59968;51.084;16.748;2023-04-23T09:26:54;8.20;;;4.80;;
72095;SDS011;59968;51.084;16.748;2023-04-23T09:29:25;6.00;;;4.40;;
72095;SDS011;59968;51.084;16.748;2023-04-23T09:31:54;7.90;;;4.40;;
72095;SDS011;59968;51.084;16.748;2023-04-23T09:34:33;8.60;;;4.40;;
72095;SDS011;59968;51.084;16.748;2023-04-23T09:37:04;6.80;;;4.20;;
72095;SDS011;59968;51.084;16.748;2023-04-23T09:39:34;9.60;;;5.00;;
72095;SDS011;59968;51.084;16.748;2023-04-23T09:42:04;8.40;;;4.60;;
72095;SDS011;59968;51.084;16.748;2023-04-23T09:44:35;7.30;;;3.90;;
72095;SDS011;59968;51.084;16.748;2023-04-23T09:47:07;7.80;;;4.10;;
72095;SDS011;59968;51.084;16.748;2023-04-23T09:49:49;5.80;;;3.90;;
72095;SDS011;59968;51.084;16.748;2023-04-23T09:52:19;7.10;;;4.00;;
72095;SDS011;59968;51.084;16.748;2023-04-23T09:54:49;6.30;;;4.00;;
72095;SDS011;59968;51.084;16.748;2023-04-23T09:57:18;4.80;;;3.60;;
72095;SDS011;59968;51.084;16.748;2023-04-23T09:59:48;7.20;;;4.00;;
72095;SDS011;59968;51.084;16.748;2023-04-23T10:02:27;6.90;;;3.90;;
72095;SDS011;59968;51.084;16.748;2023-04-23T10:04:57;7.40;;;4.60;;
72095;SDS011;59968;51.084;16.748;2023-04-23T10:07:46;7.20;;;4.00;;
72095;SDS011;59968;51.084;16.748;2023-04-23T10:10:18;6.30;;;3.80;;
72095;SDS011;59968;51.084;16.748;2023-04-23T10:12:48;6.70;;;4.10;;
72095;SDS011;59968;51.084;16.748;2023-04-23T10:15:24;7.20;;;4.10;;
72095;SDS011;59968;51.084;16.748;2023-04-23T10:17:55;5.80;;;4.00;;
72095;SDS011;59968;51.084;16.748;2023-04-23T10:20:24;7.90;;;3.90;;
72095;SDS011;59968;51.084;16.748;2023-04-23T10:22:53;5.50;;;4.00;;
72095;SDS011;59968;51.084;16.748;2023-04-23T10:25:24;8.00;;;3.70;;
72095;SDS011;59968;51.084;16.748;2023-04-23T10:27:54;8.20;;;3.40;;
72095;SDS011;59968;51.084;16.748;2023-04-23T10:30:25;6.10;;;4.00;;
72095;SDS011;59968;51.084;16.748;2023-04-23T10:32:55;6.00;;;3.90;;
72095;SDS011;59968;51.084;16.748;2023-04-23T10:35:29;5.30;;;3.70;;
72095;SDS011;59968;51.084;16.748;2023-04-23T10:37:57;5.70;;;3.70;;
72095;SDS011;59968;51.084;16.748;2023-04-23T10:40:31;6.20;;;3.60;;
72095;SDS011;59968;51.084;16.748;2023-04-23T10:43:03;5.60;;;3.70;;
72095;SDS011;59968;51.084;16.748;2023-04-23T10:45:33;4.40;;;3.60;;
72095;SDS011;59968;51.084;16.748;2023-04-23T10:48:01;6.60;;;4.40;;
72095;SDS011;59968;51.084;16.748;2023-04-23T10:50:34;6.40;;;4.10;;
72095;SDS011;59968;51.084;16.748;2023-04-23T10:53:06;5.10;;;3.90;;
72095;SDS011;59968;51.084;16.748;2023-04-23T10:55:48;8.50;;;4.60;;
72095;SDS011;59968;51.084;16.748;2023-04-23T10:58:17;6.40;;;3.90;;
72095;SDS011;59968;51.084;16.748;2023-04-23T11:00:47;6.50;;;3.90;;
72095;SDS011;59968;51.084;16.748;2023-04-23T11:03:36;6.60;;;4.00;;
72095;SDS011;59968;51.084;16.748;2023-04-23T11:06:12;8.10;;;3.80;;
72095;SDS011;59968;51.084;16.748;2023-04-23T11:08:52;6.40;;;3.80;;
72095;SDS011;59968;51.084;16.748;2023-04-23T11:11:38;5.50;;;3.50;;
72095;SDS011;59968;51.084;16.748;2023-04-23T11:14:10;4.00;;;2.70;;
72095;SDS011;59968;51.084;16.748;2023-04-23T11:16:42;4.80;;;3.00;;
72095;SDS011;59968;51.084;16.748;2023-04-23T11:19:11;6.90;;;3.00;;
72095;SDS011;59968;51.084;16.748;2023-04-23T11:21:55;7.20;;;3.40;;
72095;SDS011;59968;51.084;16.748;2023-04-23T11:24:26;5.80;;;3.40;;
72095;SDS011;59968;51.084;16.748;2023-04-23T11:26:56;6.50;;;3.30;;
72095;SDS011;59968;51.084;16.748;2023-04-23T11:29:26;5.00;;;3.40;;
72095;SDS011;59968;51.084;16.748;2023-04-23T11:31:56;6.00;;;3.20;;
72095;SDS011;59968;51.084;16.748;2023-04-23T11:34:31;5.30;;;3.00;;
72095;SDS011;59968;51.084;16.748;2023-04-23T11:37:01;4.90;;;3.50;;
72095;SDS011;59968;51.084;16.748;2023-04-23T11:39:30;4.80;;;3.50;;
72095;SDS011;59968;51.084;16.748;2023-04-23T11:41:59;7.00;;;3.20;;
72095;SDS011;59968;51.084;16.748;2023-04-23T11:44:31;5.60;;;3.30;;
72095;SDS011;59968;51.084;16.748;2023-04-23T11:47:00;7.60;;;3.50;;
72095;SDS011;59968;51.084;16.748;2023-04-23T11:49:32;5.20;;;3.60;;
72095;SDS011;59968;51.084;16.748;2023-04-23T11:52:01;6.90;;;3.60;;
72095;SDS011;59968;51.084;16.748;2023-04-23T11:54:30;4.80;;;3.30;;
72095;SDS011;59968;51.084;16.748;2023-04-23T11:57:00;4.90;;;2.80;;
72095;SDS011;59968;51.084;16.748;2023-04-23T11:59:31;5.40;;;3.60;;
72095;SDS011;59968;51.084;16.748;2023-04-23T12:01:59;4.90;;;3.40;;
72095;SDS011;59968;51.084;16.748;2023-04-23T12:04:29;5.80;;;3.50;;
72095;SDS011;59968;51.084;16.748;2023-04-23T12:06:59;5.30;;;3.40;;
72095;SDS011;59968;51.084;16.748;2023-04-23T12:09:37;6.20;;;3.30;;
72095;SDS011;59968;51.084;16.748;2023-04-23T12:12:06;6.50;;;3.40;;
72095;SDS011;59968;51.084;16.748;2023-04-23T12:14:34;6.00;;;3.20;;
72095;SDS011;59968;51.084;16.748;2023-04-23T12:17:09;7.80;;;3.20;;
72095;SDS011;59968;51.084;16.748;2023-04-23T12:19:38;6.40;;;3.80;;
72095;SDS011;59968;51.084;16.748;2023-04-23T12:22:11;5.60;;;3.30;;
72095;SDS011;59968;51.084;16.748;2023-04-23T12:24:47;5.90;;;3.40;;
72095;SDS011;59968;51.084;16.748;2023-04-23T12:27:21;7.40;;;4.60;;
72095;SDS011;59968;51.084;16.748;2023-04-23T12:29:58;5.70;;;3.90;;
72095;SDS011;59968;51.084;16.748;2023-04-23T12:32:27;7.10;;;3.50;;
72095;SDS011;59968;51.084;16.748;2023-04-23T12:34:56;5.70;;;3.50;;
72095;SDS011;59968;51.084;16.748;2023-04-23T12:37:29;5.70;;;3.10;;
72095;SDS011;59968;51.084;16.748;2023-04-23T12:39:58;7.10;;;3.10;;
72095;SDS011;59968;51.084;16.748;2023-04-23T12:42:27;6.40;;;2.70;;
72095;SDS011;59968;51.084;16.748;2023-04-23T12:45:03;8.50;;;2.90;;
72095;SDS011;59968;51.084;16.748;2023-04-23T12:47:34;5.10;;;3.00;;
72095;SDS011;59968;51.084;16.748;2023-04-23T12:50:03;4.60;;;2.90;;
72095;SDS011;59968;51.084;16.748;2023-04-23T12:52:33;9.00;;;3.00;;
72095;SDS011;59968;51.084;16.748;2023-04-23T12:55:02;4.40;;;2.70;;
72095;SDS011;59968;51.084;16.748;2023-04-23T12:57:32;4.80;;;2.70;;
72095;SDS011;59968;51.084;16.748;2023-04-23T13:00:00;4.60;;;3.00;;
72095;SDS011;59968;51.084;16.748;2023-04-23T13:02:29;4.50;;;2.50;;
72095;SDS011;59968;51.084;16.748;2023-04-23T13:04:59;5.70;;;3.00;;
72095;SDS011;59968;51.084;16.748;2023-04-23T13:07:28;6.00;;;2.90;;
72095;SDS011;59968;51.084;16.748;2023-04-23T13:09:57;9.70;;;3.30;;
72095;SDS011;59968;51.084;16.748;2023-04-23T13:12:26;5.30;;;3.20;;
72095;SDS011;59968;51.084;16.748;2023-04-23T13:14:55;4.80;;;3.20;;
72095;SDS011;59968;51.084;16.748;2023-04-23T13:17:25;5.20;;;3.40;;
72095;SDS011;59968;51.084;16.748;2023-04-23T13:19:54;5.20;;;3.30;;
72095;SDS011;59968;51.084;16.748;2023-04-23T13:22:24;5.40;;;3.20;;
72095;SDS011;59968;51.084;16.748;2023-04-23T13:24:56;5.70;;;3.20;;
72095;SDS011;59968;51.084;16.748;2023-04-23T13:27:26;4.80;;;3.30;;
72095;SDS011;59968;51.084;16.748;2023-04-23T13:29:56;6.70;;;3.40;;
72095;SDS011;59968;51.084;16.748;2023-04-23T13:32:26;5.70;;;2.80;;
72095;SDS011;59968;51.084;16.748;2023-04-23T13:34:59;5.30;;;3.10;;
72095;SDS011;59968;51.084;16.748;2023-04-23T13:37:30;5.00;;;2.40;;
72095;SDS011;59968;51.084;16.748;2023-04-23T13:39:59;3.90;;;2.60;;
72095;SDS011;59968;51.084;16.748;2023-04-23T13:42:28;4.30;;;2.40;;
72095;SDS011;59968;51.084;16.748;2023-04-23T13:44:58;3.30;;;2.50;;
72095;SDS011;59968;51.084;16.748;2023-04-23T13:47:27;3.20;;;2.40;;
72095;SDS011;59968;51.084;16.748;2023-04-23T13:49:58;3.60;;;2.30;;
72095;SDS011;59968;51.084;16.748;2023-04-23T13:52:32;4.50;;;2.80;;
72095;SDS011;59968;51.084;16.748;2023-04-23T13:55:02;5.40;;;3.10;;
72095;SDS011;59968;51.084;16.748;2023-04-23T13:57:32;5.50;;;3.20;;
72095;SDS011;59968;51.084;16.748;2023-04-23T14:00:01;4.90;;;3.20;;
72095;SDS011;59968;51.084;16.748;2023-04-23T14:02:32;5.20;;;3.20;;
72095;SDS011;59968;51.084;16.748;2023-04-23T14:05:01;6.00;;;3.30;;
72095;SDS011;59968;51.084;16.748;2023-04-23T14:07:31;5.40;;;3.00;;
72095;SDS011;59968;51.084;16.748;2023-04-23T14:10:01;6.80;;;3.20;;
72095;SDS011;59968;51.084;16.748;2023-04-23T14:12:30;5.70;;;3.20;;
72095;SDS011;59968;51.084;16.748;2023-04-23T14:14:58;5.30;;;3.50;;
72095;SDS011;59968;51.084;16.748;2023-04-23T14:17:27;5.50;;;3.40;;
72095;SDS011;59968;51.084;16.748;2023-04-23T14:19:56;5.20;;;4.10;;
72095;SDS011;59968;51.084;16.748;2023-04-23T14:22:26;6.30;;;3.50;;
72095;SDS011;59968;51.084;16.748;2023-04-23T14:25:00;5.90;;;4.10;;
72095;SDS011;59968;51.084;16.748;2023-04-23T14:27:30;5.80;;;3.60;;
72095;SDS011;59968;51.084;16.748;2023-04-23T14:30:02;6.20;;;3.60;;
72095;SDS011;59968;51.084;16.748;2023-04-23T14:32:34;5.00;;;3.40;;
72095;SDS011;59968;51.084;16.748;2023-04-23T14:35:03;4.90;;;3.10;;
72095;SDS011;59968;51.084;16.748;2023-04-23T14:37:32;4.60;;;2.60;;
72095;SDS011;59968;51.084;16.748;2023-04-23T14:40:01;4.40;;;2.90;;
72095;SDS011;59968;51.084;16.748;2023-04-23T14:42:31;4.30;;;2.80;;
72095;SDS011;59968;51.084;16.748;2023-04-23T14:45:01;4.10;;;3.00;;
72095;SDS011;59968;51.084;16.748;2023-04-23T14:47:30;5.00;;;3.10;;
72095;SDS011;59968;51.084;16.748;2023-04-23T14:49:58;5.30;;;3.30;;
72095;SDS011;59968;51.084;16.748;2023-04-23T14:52:28;5.00;;;3.00;;
72095;SDS011;59968;51.084;16.748;2023-04-23T14:54:59;5.80;;;3.10;;